sensor_id;sensor_type;location;lat;lon;timestamp;pressure;altitude;pressure_sealevel;temperature;humidity
43934;BME280;59081;42.706;23.306;2023-01-09T00:00:45;95350.06;;;-1.52;100.00
43934;BME280;59081;42.706;23.306;2023-01-09T00:03:11;95439.50;;;-1.22;100.00
43934;BME280;59081;42.706;23.306;2023-01-09T00:05:37;95391.44;;;-1.67;100.00
43934;BME280;59081;42.706;23.306;2023-01-09T00:08:03;95427.16;;;-1.39;100.00
43934;BME280;59081;42.706;23.306;2023-01-09T00:10:28;95391.69;;;-1.57;100.00
43934;BME280;59081;42.706;23.306;2023-01-09T00:12:54;95473.34;;;-0.90;100.00
43934;BME280;59081;42.706;23.306;2023-01-09T00:15:19;95511.25;;;-0.67;100.00
43934;BME280;59081;42.706;23.306;2023-01-09T00:17:44;95435.41;;;-0.74;100.00
43934;BME280;59081;42.706;23.306;2023-01-09T00:20:12;95469.78;;;-0.75;100.00
43934;BME280;59081;42.706;23.306;2023-01-09T00:22:38;95454.19;;;-1.00;100.00
43934;BME280;59081;42.706;23.306;2023-01-09T00:25:04;95470.72;;;-1.06;100.00
43934;BME280;59081;42.706;23.306;2023-01-09T00:27:34;95449.50;;;-1.23;100.00
43934;BME280;59081;42.706;23.306;2023-01-09T00:30:02;95398.25;;;-1.54;100.00
43934;BME280;59081;42.706;23.306;2023-01-09T00:32:31;95474.69;;;-0.80;100.00
43934;BME280;59081;42.706;23.306;2023-01-09T00:34:56;95458.25;;;-1.10;100.00
43934;BME280;59081;42.706;23.306;2023-01-09T00:37:22;95561.34;;;-0.57;100.00
43934;BME280;59081;42.706;23.306;2023-01-09T00:39:48;95435.25;;;-1.58;100.00
43934;BME280;59081;42.706;23.306;2023-01-09T00:42:19;95438.66;;;-1.61;100.00
43934;BME280;59081;42.706;23.306;2023-01-09T00:44:49;95470.59;;;-1.48;100.00
43934;BME280;59081;42.706;23.306;2023-01-09T00:47:22;95424.50;;;-1.74;100.00
43934;BME280;59081;42.706;23.306;2023-01-09T00:49:50;95465.59;;;-1.11;100.00
43934;BME280;59081;42.706;23.306;2023-01-09T00:52:16;95415.91;;;-1.02;100.00
43934;BME280;59081;42.706;23.306;2023-01-09T00:54:43;95411.41;;;-0.76;100.00
43934;BME280;59081;42.706;23.306;2023-01-09T00:57:11;95373.47;;;-0.79;100.00
43934;BME280;59081;42.706;23.306;2023-01-09T00:59:39;95463.41;;;0.02;100.00
43934;BME280;59081;42.706;23.306;2023-01-09T01:02:05;95463.94;;;0.11;99.58
43934;BME280;59081;42.706;23.306;2023-01-09T01:04:30;95438.06;;;-1.16;100.00
43934;BME280;59081;42.706;23.306;2023-01-09T01:07:14;95525.38;;;-0.77;100.00
43934;BME280;59081;42.706;23.306;2023-01-09T01:12:35;95463.59;;;-1.14;100.00
43934;BME280;59081;42.706;23.306;2023-01-09T01:15:02;95535.78;;;-0.60;100.00
43934;BME280;59081;42.706;23.306;2023-01-09T01:17:27;95539.81;;;-0.50;100.00
43934;BME280;59081;42.706;23.306;2023-01-09T01:19:53;95491.16;;;-0.47;100.00
43934;BME280;59081;42.706;23.306;2023-01-09T01:22:18;95457.63;;;-0.42;100.00
43934;BME280;59081;42.706;23.306;2023-01-09T01:24:44;95528.03;;;0.26;100.00
43934;BME280;59081;42.706;23.306;2023-01-09T01:27:09;95478.63;;;0.10;100.00
43934;BME280;59081;42.706;23.306;2023-01-09T01:29:35;95446.88;;;-1.00;100.00
43934;BME280;59081;42.706;23.306;2023-01-09T01:32:00;95405.09;;;-1.60;100.00
43934;BME280;59081;42.706;23.306;2023-01-09T01:34:27;95328.34;;;-2.14;100.00
43934;BME280;59081;42.706;23.306;2023-01-09T01:36:53;95514.84;;;-0.82;100.00
43934;BME280;59081;42.706;23.306;2023-01-09T01:39:18;95392.47;;;-1.56;100.00
43934;BME280;59081;42.706;23.306;2023-01-09T01:41:44;95307.31;;;-2.04;100.00
43934;BME280;59081;42.706;23.306;2023-01-09T01:47:13;95516.78;;;0.02;100.00
43934;BME280;59081;42.706;23.306;2023-01-09T01:49:41;95376.84;;;-0.63;100.00
43934;BME280;59081;42.706;23.306;2023-01-09T01:52:07;95310.56;;;-1.60;100.00
43934;BME280;59081;42.706;23.306;2023-01-09T01:54:32;95435.97;;;-1.03;100.00
43934;BME280;59081;42.706;23.306;2023-01-09T01:57:01;95314.00;;;-1.98;100.00
43934;BME280;59081;42.706;23.306;2023-01-09T02:02:02;95394.41;;;-1.72;100.00
43934;BME280;59081;42.706;23.306;2023-01-09T02:04:29;95331.25;;;-2.03;100.00
43934;BME280;59081;42.706;23.306;2023-01-09T02:06:57;95346.22;;;-1.70;100.00
43934;BME280;59081;42.706;23.306;2023-01-09T02:09:25;95346.66;;;-1.30;100.00
43934;BME280;59081;42.706;23.306;2023-01-09T02:11:54;95421.31;;;-0.41;100.00
43934;BME280;59081;42.706;23.306;2023-01-09T02:14:23;95308.53;;;-1.02;100.00
43934;BME280;59081;42.706;23.306;2023-01-09T02:22:35;95483.09;;;-1.04;100.00
43934;BME280;59081;42.706;23.306;2023-01-09T02:41:42;95459.09;;;-0.67;100.00
43934;BME280;59081;42.706;23.306;2023-01-09T02:44:24;95435.69;;;-1.18;100.00
43934;BME280;59081;42.706;23.306;2023-01-09T02:47:34;95191.03;;;-2.34;100.00
43934;BME280;59081;42.706;23.306;2023-01-09T02:49:59;95389.81;;;-1.53;100.00
43934;BME280;59081;42.706;23.306;2023-01-09T03:01:17;95344.97;;;-2.12;100.00
43934;BME280;59081;42.706;23.306;2023-01-09T03:03:51;95459.31;;;-0.95;100.00
43934;BME280;59081;42.706;23.306;2023-01-09T03:06:33;95386.56;;;-1.04;100.00
43934;BME280;59081;42.706;23.306;2023-01-09T03:09:16;95363.97;;;-0.92;100.00
43934;BME280;59081;42.706;23.306;2023-01-09T03:11:50;95382.75;;;-0.57;100.00
43934;BME280;59081;42.706;23.306;2023-01-09T03:14:19;95326.59;;;-0.87;100.00
43934;BME280;59081;42.706;23.306;2023-01-09T03:16:49;95377.78;;;-0.55;100.00
43934;BME280;59081;42.706;23.306;2023-01-09T03:19:19;95394.66;;;-0.39;100.00
43934;BME280;59081;42.706;23.306;2023-01-09T03:21:47;95443.84;;;0.12;100.00
43934;BME280;59081;42.706;23.306;2023-01-09T03:24:13;95351.56;;;-0.74;100.00
43934;BME280;59081;42.706;23.306;2023-01-09T03:26:39;95354.84;;;-1.46;100.00
43934;BME280;59081;42.706;23.306;2023-01-09T03:29:05;95283.72;;;-2.07;100.00
43934;BME280;59081;42.706;23.306;2023-01-09T03:31:30;95461.41;;;-1.08;100.00
43934;BME280;59081;42.706;23.306;2023-01-09T03:33:56;95385.13;;;-1.75;100.00
43934;BME280;59081;42.706;23.306;2023-01-09T03:36:22;95296.09;;;-2.41;100.00
43934;BME280;59081;42.706;23.306;2023-01-09T03:38:48;95382.69;;;-1.80;100.00
43934;BME280;59081;42.706;23.306;2023-01-09T03:41:13;95434.56;;;-1.17;100.00
43934;BME280;59081;42.706;23.306;2023-01-09T03:43:39;95429.28;;;-1.48;100.00
43934;BME280;59081;42.706;23.306;2023-01-09T03:46:05;95434.16;;;-1.54;100.00
43934;BME280;59081;42.706;23.306;2023-01-09T03:48:30;95306.53;;;-2.40;100.00
43934;BME280;59081;42.706;23.306;2023-01-09T03:50:56;95351.25;;;-2.23;100.00
43934;BME280;59081;42.706;23.306;2023-01-09T03:53:25;95263.66;;;-2.96;100.00
43934;BME280;59081;42.706;23.306;2023-01-09T03:55:53;95394.38;;;-1.92;100.00
43934;BME280;59081;42.706;23.306;2023-01-09T03:58:19;95292.31;;;-2.21;100.00
43934;BME280;59081;42.706;23.306;2023-01-09T04:00:45;95390.19;;;-1.35;100.00
43934;BME280;59081;42.706;23.306;2023-01-09T04:03:14;95440.75;;;-0.78;100.00
43934;BME280;59081;42.706;23.306;2023-01-09T04:05:40;95313.44;;;-1.30;100.00
43934;BME280;59081;42.706;23.306;2023-01-09T04:08:06;95320.34;;;-1.91;100.00
43934;BME280;59081;42.706;23.306;2023-01-09T04:10:32;95330.88;;;-2.21;100.00
43934;BME280;59081;42.706;23.306;2023-01-09T04:12:57;95355.22;;;-2.01;100.00
43934;BME280;59081;42.706;23.306;2023-01-09T04:15:23;95299.50;;;-2.44;100.00
43934;BME280;59081;42.706;23.306;2023-01-09T04:17:49;95458.31;;;-1.45;100.00
43934;BME280;59081;42.706;23.306;2023-01-09T04:20:15;95370.94;;;-1.88;100.00
43934;BME280;59081;42.706;23.306;2023-01-09T04:22:41;95267.59;;;-2.23;100.00
43934;BME280;59081;42.706;23.306;2023-01-09T04:25:07;95334.03;;;-1.99;100.00
43934;BME280;59081;42.706;23.306;2023-01-09T04:27:32;95366.81;;;-1.82;100.00
43934;BME280;59081;42.706;23.306;2023-01-09T04:29:58;95297.81;;;-2.33;100.00
43934;BME280;59081;42.706;23.306;2023-01-09T04:32:23;95294.47;;;-2.46;100.00
43934;BME280;59081;42.706;23.306;2023-01-09T04:34:52;95453.88;;;-1.53;100.00
43934;BME280;59081;42.706;23.306;2023-01-09T04:37:17;95261.97;;;-2.69;100.00
43934;BME280;59081;42.706;23.306;2023-01-09T04:39:43;95349.75;;;-1.86;100.00
43934;BME280;59081;42.706;23.306;2023-01-09T04:42:10;95350.56;;;-1.47;100.00
43934;BME280;59081;42.706;23.306;2023-01-09T04:44:35;95266.28;;;-1.94;100.00
43934;BME280;59081;42.706;23.306;2023-01-09T04:47:01;95312.91;;;-1.39;100.00
43934;BME280;59081;42.706;23.306;2023-01-09T04:49:26;95440.63;;;-1.23;100.00
43934;BME280;59081;42.706;23.306;2023-01-09T04:51:52;95188.13;;;-3.15;100.00
43934;BME280;59081;42.706;23.306;2023-01-09T04:54:18;95249.94;;;-2.71;100.00
43934;BME280;59081;42.706;23.306;2023-01-09T04:56:44;95370.28;;;-2.00;100.00
43934;BME280;59081;42.706;23.306;2023-01-09T04:59:09;95373.59;;;-2.07;100.00
43934;BME280;59081;42.706;23.306;2023-01-09T05:01:35;95391.47;;;-1.83;100.00
43934;BME280;59081;42.706;23.306;2023-01-09T05:04:01;95287.22;;;-2.07;100.00
43934;BME280;59081;42.706;23.306;2023-01-09T05:06:27;95449.50;;;-0.84;100.00
43934;BME280;59081;42.706;23.306;2023-01-09T05:08:53;95266.31;;;-2.29;100.00
43934;BME280;59081;42.706;23.306;2023-01-09T05:11:18;95393.63;;;-1.73;100.00
43934;BME280;59081;42.706;23.306;2023-01-09T05:13:44;95394.00;;;-1.90;100.00
43934;BME280;59081;42.706;23.306;2023-01-09T05:16:09;95338.53;;;-2.23;100.00
43934;BME280;59081;42.706;23.306;2023-01-09T05:18:35;95361.84;;;-2.15;100.00
43934;BME280;59081;42.706;23.306;2023-01-09T05:21:01;95278.22;;;-2.65;100.00
43934;BME280;59081;42.706;23.306;2023-01-09T05:23:26;95294.44;;;-2.30;100.00
43934;BME280;59081;42.706;23.306;2023-01-09T05:25:51;95445.34;;;-1.36;100.00
43934;BME280;59081;42.706;23.306;2023-01-09T05:28:17;95354.28;;;-2.09;100.00
43934;BME280;59081;42.706;23.306;2023-01-09T05:30:43;95301.59;;;-2.54;100.00
43934;BME280;59081;42.706;23.306;2023-01-09T05:33:08;95292.50;;;-2.65;100.00
43934;BME280;59081;42.706;23.306;2023-01-09T05:35:34;95414.91;;;-1.87;100.00
43934;BME280;59081;42.706;23.306;2023-01-09T05:37:59;95266.31;;;-2.80;100.00
43934;BME280;59081;42.706;23.306;2023-01-09T05:40:25;95287.22;;;-2.42;100.00
43934;BME280;59081;42.706;23.306;2023-01-09T05:42:50;95297.66;;;-2.40;100.00
43934;BME280;59081;42.706;23.306;2023-01-09T05:45:16;95267.09;;;-2.64;100.00
43934;BME280;59081;42.706;23.306;2023-01-09T05:47:43;95436.25;;;-1.47;100.00
43934;BME280;59081;42.706;23.306;2023-01-09T05:50:10;95302.66;;;-2.42;100.00
43934;BME280;59081;42.706;23.306;2023-01-09T05:52:35;95365.13;;;-2.05;100.00
43934;BME280;59081;42.706;23.306;2023-01-09T05:55:01;95354.84;;;-2.00;100.00
43934;BME280;59081;42.706;23.306;2023-01-09T05:57:26;95247.75;;;-2.50;100.00
43934;BME280;59081;42.706;23.306;2023-01-09T05:59:53;95332.03;;;-2.02;100.00
43934;BME280;59081;42.706;23.306;2023-01-09T06:02:18;95330.91;;;-2.01;100.00
43934;BME280;59081;42.706;23.306;2023-01-09T06:04:44;95307.38;;;-2.20;100.00
43934;BME280;59081;42.706;23.306;2023-01-09T06:07:09;95249.00;;;-2.63;100.00
43934;BME280;59081;42.706;23.306;2023-01-09T06:09:35;95339.00;;;-2.01;100.00
43934;BME280;59081;42.706;23.306;2023-01-09T06:12:00;95310.06;;;-2.20;100.00
43934;BME280;59081;42.706;23.306;2023-01-09T06:14:26;95208.19;;;-2.62;100.00
43934;BME280;59081;42.706;23.306;2023-01-09T06:16:51;95223.97;;;-2.44;100.00
43934;BME280;59081;42.706;23.306;2023-01-09T06:19:17;95271.06;;;-2.23;100.00
43934;BME280;59081;42.706;23.306;2023-01-09T06:21:42;95343.31;;;-1.62;100.00
43934;BME280;59081;42.706;23.306;2023-01-09T06:24:08;95381.94;;;-1.23;100.00
43934;BME280;59081;42.706;23.306;2023-01-09T06:26:33;95305.03;;;-1.06;100.00
43934;BME280;59081;42.706;23.306;2023-01-09T06:28:59;95296.34;;;-1.96;100.00
43934;BME280;59081;42.706;23.306;2023-01-09T06:31:26;95291.78;;;-2.11;100.00
43934;BME280;59081;42.706;23.306;2023-01-09T06:33:52;95264.88;;;-2.23;100.00
43934;BME280;59081;42.706;23.306;2023-01-09T06:36:18;95308.28;;;-1.78;100.00
43934;BME280;59081;42.706;23.306;2023-01-09T06:38:44;95373.69;;;-1.30;100.00
43934;BME280;59081;42.706;23.306;2023-01-09T06:41:09;95279.63;;;-1.63;100.00
43934;BME280;59081;42.706;23.306;2023-01-09T06:43:35;95338.00;;;-0.97;100.00
43934;BME280;59081;42.706;23.306;2023-01-09T06:46:00;95337.47;;;-0.83;100.00
43934;BME280;59081;42.706;23.306;2023-01-09T06:48:26;95246.84;;;-1.19;100.00
43934;BME280;59081;42.706;23.306;2023-01-09T06:50:52;95300.75;;;-0.61;100.00
43934;BME280;59081;42.706;23.306;2023-01-09T06:53:18;95257.81;;;-0.63;100.00
43934;BME280;59081;42.706;23.306;2023-01-09T06:55:44;95280.88;;;-0.95;100.00
43934;BME280;59081;42.706;23.306;2023-01-09T06:58:10;95390.97;;;-0.50;100.00
43934;BME280;59081;42.706;23.306;2023-01-09T07:00:36;95413.47;;;-0.46;100.00
43934;BME280;59081;42.706;23.306;2023-01-09T07:03:02;95297.31;;;-1.27;100.00
43934;BME280;59081;42.706;23.306;2023-01-09T07:05:27;95356.81;;;-0.81;100.00
43934;BME280;59081;42.706;23.306;2023-01-09T07:07:53;95297.63;;;-1.09;100.00
43934;BME280;59081;42.706;23.306;2023-01-09T07:10:19;95399.59;;;-0.22;100.00
43934;BME280;59081;42.706;23.306;2023-01-09T07:12:44;95229.84;;;-0.97;100.00
43934;BME280;59081;42.706;23.306;2023-01-09T07:15:10;95322.03;;;-0.33;100.00
43934;BME280;59081;42.706;23.306;2023-01-09T07:17:35;95363.56;;;0.00;100.00
43934;BME280;59081;42.706;23.306;2023-01-09T07:20:02;95292.53;;;-0.42;100.00
43934;BME280;59081;42.706;23.306;2023-01-09T07:22:27;95295.81;;;-0.29;100.00
43934;BME280;59081;42.706;23.306;2023-01-09T07:24:53;95241.38;;;-0.51;100.00
43934;BME280;59081;42.706;23.306;2023-01-09T07:27:18;95252.69;;;-0.19;100.00
43934;BME280;59081;42.706;23.306;2023-01-09T07:29:44;95381.56;;;0.72;99.12
43934;BME280;59081;42.706;23.306;2023-01-09T07:32:09;95339.50;;;0.52;99.10
43934;BME280;59081;42.706;23.306;2023-01-09T07:34:34;95395.53;;;1.08;97.45
43934;BME280;59081;42.706;23.306;2023-01-09T07:37:00;95224.22;;;-0.06;96.56
43934;BME280;59081;42.706;23.306;2023-01-09T07:39:25;95339.75;;;0.73;97.42
43934;BME280;59081;42.706;23.306;2023-01-09T07:41:51;95285.97;;;0.45;97.71
43934;BME280;59081;42.706;23.306;2023-01-09T07:44:16;95330.00;;;1.02;98.73
43934;BME280;59081;42.706;23.306;2023-01-09T07:46:42;95252.66;;;0.78;97.16
43934;BME280;59081;42.706;23.306;2023-01-09T07:49:08;95221.34;;;0.84;95.47
43934;BME280;59081;42.706;23.306;2023-01-09T07:51:33;95307.66;;;1.63;93.28
43934;BME280;59081;42.706;23.306;2023-01-09T07:53:59;95286.13;;;1.37;90.27
43934;BME280;59081;42.706;23.306;2023-01-09T07:56:24;95329.22;;;1.01;94.12
43934;BME280;59081;42.706;23.306;2023-01-09T07:58:49;95385.63;;;1.22;97.59
43934;BME280;59081;42.706;23.306;2023-01-09T08:01:15;95339.06;;;0.80;99.20
43934;BME280;59081;42.706;23.306;2023-01-09T08:03:40;95348.78;;;0.84;99.85
43934;BME280;59081;42.706;23.306;2023-01-09T08:06:06;95261.06;;;0.32;99.35
43934;BME280;59081;42.706;23.306;2023-01-09T08:08:31;95441.47;;;1.60;97.87
43934;BME280;59081;42.706;23.306;2023-01-09T08:10:57;95344.06;;;1.15;95.79
43934;BME280;59081;42.706;23.306;2023-01-09T08:13:22;95312.56;;;0.66;97.38
43934;BME280;59081;42.706;23.306;2023-01-09T08:15:48;95409.97;;;1.52;97.34
43934;BME280;59081;42.706;23.306;2023-01-09T08:18:13;95375.91;;;1.21;97.17
43934;BME280;59081;42.706;23.306;2023-01-09T08:20:39;95419.69;;;1.53;96.54
43934;BME280;59081;42.706;23.306;2023-01-09T08:23:04;95367.03;;;1.21;96.36
43934;BME280;59081;42.706;23.306;2023-01-09T08:25:30;95299.84;;;1.11;95.62
43934;BME280;59081;42.706;23.306;2023-01-09T08:27:55;95303.63;;;0.99;94.70
43934;BME280;59081;42.706;23.306;2023-01-09T08:30:20;95362.78;;;1.27;95.70
43934;BME280;59081;42.706;23.306;2023-01-09T08:32:50;95439.41;;;1.91;95.20
43934;BME280;59081;42.706;23.306;2023-01-09T08:35:16;95292.19;;;1.23;94.61
43934;BME280;59081;42.706;23.306;2023-01-09T08:37:43;95292.84;;;1.50;92.43
43934;BME280;59081;42.706;23.306;2023-01-09T08:40:10;95315.50;;;1.28;94.59
43934;BME280;59081;42.706;23.306;2023-01-09T08:42:36;95445.41;;;2.07;95.95
43934;BME280;59081;42.706;23.306;2023-01-09T08:45:20;95306.06;;;1.11;96.68
43934;BME280;59081;42.706;23.306;2023-01-09T08:48:04;95398.22;;;1.82;97.32
43934;BME280;59081;42.706;23.306;2023-01-09T08:50:30;95285.09;;;1.08;97.79
43934;BME280;59081;42.706;23.306;2023-01-09T08:52:55;95295.78;;;1.31;97.70
43934;BME280;59081;42.706;23.306;2023-01-09T08:55:21;95259.53;;;1.60;97.42
43934;BME280;59081;42.706;23.306;2023-01-09T08:57:47;95291.75;;;2.27;94.24
43934;BME280;59081;42.706;23.306;2023-01-09T09:00:14;95261.97;;;2.49;92.03
43934;BME280;59081;42.706;23.306;2023-01-09T09:02:39;95368.34;;;3.41;89.37
43934;BME280;59081;42.706;23.306;2023-01-09T09:05:05;95369.16;;;3.66;88.00
43934;BME280;59081;42.706;23.306;2023-01-09T09:07:30;95296.19;;;2.64;90.30
43934;BME280;59081;42.706;23.306;2023-01-09T09:12:40;95367.97;;;3.53;88.72
43934;BME280;59081;42.706;23.306;2023-01-09T09:15:06;95302.19;;;3.15;89.23
43934;BME280;59081;42.706;23.306;2023-01-09T09:17:38;95287.00;;;3.14;89.08
43934;BME280;59081;42.706;23.306;2023-01-09T09:20:05;95241.13;;;3.02;89.17
43934;BME280;59081;42.706;23.306;2023-01-09T09:22:31;95205.38;;;3.36;86.08
43934;BME280;59081;42.706;23.306;2023-01-09T09:24:56;95301.78;;;4.20;85.05
43934;BME280;59081;42.706;23.306;2023-01-09T09:27:22;95340.72;;;4.31;85.28
43934;BME280;59081;42.706;23.306;2023-01-09T09:29:47;95226.31;;;3.85;84.47
43934;BME280;59081;42.706;23.306;2023-01-09T09:32:12;95153.13;;;3.91;82.24
43934;BME280;59081;42.706;23.306;2023-01-09T09:34:38;95364.69;;;5.00;82.23
43934;BME280;59081;42.706;23.306;2023-01-09T09:37:03;95352.56;;;5.08;81.83
43934;BME280;59081;42.706;23.306;2023-01-09T09:39:29;95210.09;;;4.62;79.94
43934;BME280;59081;42.706;23.306;2023-01-09T09:47:52;95297.75;;;5.96;77.34
43934;BME280;59081;42.706;23.306;2023-01-09T09:53:30;95296.31;;;6.59;74.10
43934;BME280;59081;42.706;23.306;2023-01-09T09:55:56;95199.47;;;5.74;74.37
43934;BME280;59081;42.706;23.306;2023-01-09T09:58:29;95129.63;;;5.36;75.46
43934;BME280;59081;42.706;23.306;2023-01-09T10:00:57;95259.16;;;6.24;75.23
43934;BME280;59081;42.706;23.306;2023-01-09T10:03:34;95260.06;;;6.82;72.54
43934;BME280;59081;42.706;23.306;2023-01-09T10:06:33;95241.78;;;7.06;70.96
43934;BME280;59081;42.706;23.306;2023-01-09T10:09:20;95246.06;;;7.33;70.12
43934;BME280;59081;42.706;23.306;2023-01-09T10:14:31;95142.25;;;6.89;68.70
43934;BME280;59081;42.706;23.306;2023-01-09T10:30:51;95189.56;;;7.86;68.04
43934;BME280;59081;42.706;23.306;2023-01-09T10:39:11;95091.91;;;8.68;63.90
43934;BME280;59081;42.706;23.306;2023-01-09T10:41:50;95177.19;;;9.94;61.75
43934;BME280;59081;42.706;23.306;2023-01-09T10:44:32;95188.97;;;9.95;60.55
43934;BME280;59081;42.706;23.306;2023-01-09T10:47:14;95058.72;;;9.27;60.73
43934;BME280;59081;42.706;23.306;2023-01-09T10:49:40;95096.16;;;9.05;61.37
43934;BME280;59081;42.706;23.306;2023-01-09T10:52:10;95175.41;;;9.71;61.06
43934;BME280;59081;42.706;23.306;2023-01-09T10:54:59;95155.50;;;9.67;60.72
43934;BME280;59081;42.706;23.306;2023-01-09T10:57:42;95136.13;;;9.71;60.24
43934;BME280;59081;42.706;23.306;2023-01-09T11:00:17;95078.66;;;9.15;60.26
43934;BME280;59081;42.706;23.306;2023-01-09T11:02:44;95138.91;;;9.55;60.51
43934;BME280;59081;42.706;23.306;2023-01-09T11:05:12;95000.00;;;8.72;59.70
43934;BME280;59081;42.706;23.306;2023-01-09T11:07:42;94933.94;;;8.31;59.95
43934;BME280;59081;42.706;23.306;2023-01-09T11:10:11;95064.28;;;8.59;60.88
43934;BME280;59081;42.706;23.306;2023-01-09T11:12:37;94982.84;;;8.16;60.86
43934;BME280;59081;42.706;23.306;2023-01-09T11:17:43;95130.34;;;8.68;62.43
43934;BME280;59081;42.706;23.306;2023-01-09T11:22:51;95011.41;;;7.63;63.62
43934;BME280;59081;42.706;23.306;2023-01-09T11:25:19;95005.59;;;7.18;65.16
43934;BME280;59081;42.706;23.306;2023-01-09T11:30:27;95101.97;;;7.36;67.43
43934;BME280;59081;42.706;23.306;2023-01-09T11:32:57;94978.00;;;6.12;69.94
43934;BME280;59081;42.706;23.306;2023-01-09T11:35:30;95079.34;;;7.52;67.61
43934;BME280;59081;42.706;23.306;2023-01-09T11:38:15;95007.34;;;6.85;67.89
43934;BME280;59081;42.706;23.306;2023-01-09T11:40:49;94977.47;;;6.47;68.66
43934;BME280;59081;42.706;23.306;2023-01-09T11:45:58;95065.44;;;6.73;70.22
43934;BME280;59081;42.706;23.306;2023-01-09T11:48:39;95103.56;;;6.87;70.75
43934;BME280;59081;42.706;23.306;2023-01-09T11:51:32;95098.13;;;6.83;71.23
43934;BME280;59081;42.706;23.306;2023-01-09T11:54:24;95088.63;;;7.15;69.42
43934;BME280;59081;42.706;23.306;2023-01-09T11:56:51;94998.97;;;6.22;70.65
43934;BME280;59081;42.706;23.306;2023-01-09T11:59:19;94932.38;;;5.78;70.26
43934;BME280;59081;42.706;23.306;2023-01-09T12:05:00;95086.22;;;6.70;71.23
43934;BME280;59081;42.706;23.306;2023-01-09T12:10:39;95068.44;;;7.05;70.23
43934;BME280;59081;42.706;23.306;2023-01-09T12:26:31;95025.56;;;7.97;65.91
43934;BME280;59081;42.706;23.306;2023-01-09T12:42:58;94915.44;;;7.07;65.71
43934;BME280;59081;42.706;23.306;2023-01-09T12:46:01;95029.69;;;7.89;65.64
43934;BME280;59081;42.706;23.306;2023-01-09T12:54:08;94991.69;;;7.09;68.64
43934;BME280;59081;42.706;23.306;2023-01-09T12:56:39;95024.34;;;7.43;67.69
43934;BME280;59081;42.706;23.306;2023-01-09T13:04:56;94941.13;;;6.70;68.97
43934;BME280;59081;42.706;23.306;2023-01-09T13:07:27;95010.91;;;6.58;71.20
43934;BME280;59081;42.706;23.306;2023-01-09T13:12:38;94844.47;;;5.83;71.26
43934;BME280;59081;42.706;23.306;2023-01-09T13:15:32;94871.97;;;6.00;70.31
43934;BME280;59081;42.706;23.306;2023-01-09T13:18:04;95013.44;;;6.46;71.98
43934;BME280;59081;42.706;23.306;2023-01-09T13:20:37;94910.38;;;5.58;73.47
43934;BME280;59081;42.706;23.306;2023-01-09T13:23:06;94973.63;;;5.91;73.65
43934;BME280;59081;42.706;23.306;2023-01-09T13:25:44;94836.72;;;4.94;74.91
43934;BME280;59081;42.706;23.306;2023-01-09T13:28:23;94824.84;;;5.08;73.62
43934;BME280;59081;42.706;23.306;2023-01-09T13:33:56;94853.72;;;5.05;74.62
43934;BME280;59081;42.706;23.306;2023-01-09T13:36:35;94821.50;;;4.63;76.55
43934;BME280;59081;42.706;23.306;2023-01-09T13:39:02;94919.09;;;5.19;77.25
43934;BME280;59081;42.706;23.306;2023-01-09T13:41:29;94887.94;;;4.83;78.03
43934;BME280;59081;42.706;23.306;2023-01-09T13:46:44;94981.56;;;5.78;77.04
43934;BME280;59081;42.706;23.306;2023-01-09T13:52:04;94988.41;;;5.63;78.35
43934;BME280;59081;42.706;23.306;2023-01-09T13:57:41;94995.03;;;5.32;79.36
43934;BME280;59081;42.706;23.306;2023-01-09T14:05:07;94930.38;;;4.87;79.30
43934;BME280;59081;42.706;23.306;2023-01-09T14:07:46;94862.44;;;4.22;80.12
43934;BME280;59081;42.706;23.306;2023-01-09T14:10:30;94989.66;;;5.21;80.18
43934;BME280;59081;42.706;23.306;2023-01-09T14:12:59;94915.84;;;4.60;80.42
43934;BME280;59081;42.706;23.306;2023-01-09T14:15:40;94905.72;;;4.57;81.21
43934;BME280;59081;42.706;23.306;2023-01-09T14:18:22;94819.53;;;3.84;81.24
43934;BME280;59081;42.706;23.306;2023-01-09T14:21:02;94862.47;;;4.18;81.28
43934;BME280;59081;42.706;23.306;2023-01-09T14:25:59;94807.25;;;3.66;82.52
43934;BME280;59081;42.706;23.306;2023-01-09T14:28:29;94803.84;;;3.51;82.78
43934;BME280;59081;42.706;23.306;2023-01-09T14:38:53;94927.81;;;4.29;83.52
43934;BME280;59081;42.706;23.306;2023-01-09T14:41:35;94910.84;;;4.10;83.94
43934;BME280;59081;42.706;23.306;2023-01-09T14:46:52;94962.50;;;4.28;84.96
43934;BME280;59081;42.706;23.306;2023-01-09T14:49:29;94960.66;;;4.14;85.63
43934;BME280;59081;42.706;23.306;2023-01-09T14:51:57;94873.63;;;3.90;84.42
43934;BME280;59081;42.706;23.306;2023-01-09T14:54:30;94824.88;;;3.50;84.93
43934;BME280;59081;42.706;23.306;2023-01-09T14:56:57;94830.97;;;3.65;85.19
43934;BME280;59081;42.706;23.306;2023-01-09T14:59:24;94850.38;;;3.74;84.43
43934;BME280;59081;42.706;23.306;2023-01-09T15:01:50;94808.63;;;3.40;84.63
43934;BME280;59081;42.706;23.306;2023-01-09T15:04:30;94937.19;;;4.24;85.33
43934;BME280;59081;42.706;23.306;2023-01-09T15:06:59;94952.22;;;3.98;86.85
43934;BME280;59081;42.706;23.306;2023-01-09T15:12:06;94840.16;;;3.34;87.25
43934;BME280;59081;42.706;23.306;2023-01-09T15:14:39;94781.69;;;2.94;88.85
43934;BME280;59081;42.706;23.306;2023-01-09T15:17:12;94951.00;;;4.03;88.03
43934;BME280;59081;42.706;23.306;2023-01-09T15:19:43;94793.41;;;2.80;89.53
43934;BME280;59081;42.706;23.306;2023-01-09T15:22:28;94805.44;;;2.83;90.65
43934;BME280;59081;42.706;23.306;2023-01-09T15:24:55;94759.38;;;2.51;91.92
43934;BME280;59081;42.706;23.306;2023-01-09T15:27:20;94874.66;;;3.51;90.25
43934;BME280;59081;42.706;23.306;2023-01-09T15:29:47;94765.97;;;2.53;92.02
43934;BME280;59081;42.706;23.306;2023-01-09T15:34:45;94796.19;;;2.73;92.46
43934;BME280;59081;42.706;23.306;2023-01-09T15:37:33;94824.88;;;2.85;91.81
43934;BME280;59081;42.706;23.306;2023-01-09T15:40:00;94816.00;;;2.70;92.98
43934;BME280;59081;42.706;23.306;2023-01-09T15:42:30;94787.41;;;2.33;94.48
43934;BME280;59081;42.706;23.306;2023-01-09T15:45:30;94835.16;;;2.34;95.63